createdAt,value
2018-08-14T00:00:17.498Z,20.60
2018-08-14T00:02:45.734Z,20.60
2018-08-14T00:05:13.989Z,20.60
2018-08-14T00:07:42.652Z,20.70
2018-08-14T00:10:11.668Z,20.70
2018-08-14T00:12:39.998Z,20.70
2018-08-14T00:15:12.560Z,20.70
2018-08-14T00:17:40.813Z,20.70
2018-08-14T00:20:10.514Z,20.70
2018-08-14T00:22:39.587Z,20.70
2018-08-14T00:25:08.769Z,20.70
2018-08-14T00:27:37.709Z,20.80
2018-08-14T00:30:07.674Z,20.80
2018-08-14T00:32:36.924Z,20.80
2018-08-14T00:35:06.134Z,20.70
2018-08-14T00:37:34.402Z,20.70
2018-08-14T00:40:02.690Z,20.70
2018-08-14T00:42:30.987Z,20.70
2018-08-14T00:44:59.282Z,20.70
2018-08-14T00:47:27.721Z,20.70
2018-08-14T00:49:55.984Z,20.70
2018-08-14T00:52:24.238Z,20.70
2018-08-14T00:54:52.486Z,20.70
2018-08-14T00:57:20.683Z,20.70
2018-08-14T00:59:48.901Z,20.70
2018-08-14T01:02:17.126Z,20.70
2018-08-14T01:04:45.342Z,20.60
2018-08-14T01:07:13.563Z,20.60
2018-08-14T01:09:41.870Z,20.60
2018-08-14T01:12:10.164Z,20.50
2018-08-14T01:14:38.453Z,20.60
2018-08-14T01:17:06.767Z,20.60
2018-08-14T01:19:34.974Z,20.60
2018-08-14T01:22:03.242Z,20.60
2018-08-14T01:24:31.552Z,20.60
2018-08-14T01:26:59.829Z,20.60
2018-08-14T01:29:34.398Z,20.60
2018-08-14T01:32:02.617Z,20.60
2018-08-14T01:34:30.875Z,20.60
2018-08-14T01:36:59.133Z,20.60
2018-08-14T01:39:27.446Z,20.60
2018-08-14T01:41:55.656Z,20.50
2018-08-14T01:44:23.931Z,20.40
2018-08-14T01:46:52.149Z,20.40
2018-08-14T01:49:20.337Z,20.40
2018-08-14T01:51:48.571Z,20.40
2018-08-14T01:54:16.800Z,20.40
2018-08-14T01:56:45.027Z,20.40
2018-08-14T01:59:13.251Z,20.30
2018-08-14T02:01:41.493Z,20.20
2018-08-14T02:04:09.711Z,20.20
2018-08-14T02:06:37.967Z,20.10
2018-08-14T02:09:08.491Z,20.10
2018-08-14T02:11:36.709Z,20.10
2018-08-14T02:14:05.018Z,20.00
2018-08-14T02:16:33.277Z,20.00
2018-08-14T02:19:01.484Z,20.00
2018-08-14T02:21:29.813Z,20.00
2018-08-14T02:23:58.019Z,20.00
2018-08-14T02:26:26.271Z,19.90
2018-08-14T02:28:54.496Z,19.90
2018-08-14T02:31:22.741Z,19.90
2018-08-14T02:33:50.946Z,19.90
2018-08-14T02:36:19.198Z,19.80
2018-08-14T02:38:47.453Z,19.70
2018-08-14T02:41:15.725Z,19.60
2018-08-14T02:43:43.922Z,19.60
2018-08-14T02:46:12.157Z,19.70
2018-08-14T02:48:40.375Z,19.70
2018-08-14T02:51:09.050Z,19.70
2018-08-14T02:53:37.414Z,19.70
2018-08-14T02:56:05.687Z,19.70
2018-08-14T02:58:33.966Z,19.70
2018-08-14T03:01:02.162Z,19.70
2018-08-14T03:03:30.413Z,19.70
2018-08-14T03:05:58.621Z,19.70
2018-08-14T03:08:26.925Z,19.70
2018-08-14T03:10:55.138Z,19.80
2018-08-14T03:13:23.403Z,19.70
2018-08-14T03:15:51.639Z,19.70
2018-08-14T03:18:19.869Z,19.70
2018-08-14T03:20:48.206Z,19.70
2018-08-14T03:23:16.433Z,19.60
2018-08-14T03:25:44.662Z,19.60
2018-08-14T03:28:12.915Z,19.60
2018-08-14T03:30:41.146Z,19.60
2018-08-14T03:33:09.376Z,19.60
2018-08-14T03:35:37.637Z,19.60
2018-08-14T03:38:06.015Z,19.60
2018-08-14T03:40:34.245Z,19.60
2018-08-14T03:43:02.485Z,19.60
2018-08-14T03:45:32.178Z,19.60
2018-08-14T03:48:00.351Z,19.60
2018-08-14T03:50:28.636Z,19.60
2018-08-14T03:52:56.817Z,19.60
2018-08-14T03:55:25.094Z,19.60
2018-08-14T03:57:54.291Z,19.60
2018-08-14T04:00:22.552Z,19.60
2018-08-14T04:02:50.832Z,19.60
2018-08-14T04:05:19.092Z,19.60
2018-08-14T04:07:47.369Z,19.60
2018-08-14T04:10:15.650Z,19.60
2018-08-14T04:12:43.931Z,19.60
2018-08-14T04:15:13.488Z,19.60
2018-08-14T04:17:41.724Z,19.60
2018-08-14T04:20:12.417Z,19.60
2018-08-14T04:22:41.204Z,19.70
2018-08-14T04:25:10.892Z,19.60
2018-08-14T04:27:39.706Z,19.60
2018-08-14T04:30:10.271Z,19.60
2018-08-14T04:32:38.498Z,19.60
2018-08-14T04:35:06.860Z,19.60
2018-08-14T04:37:35.097Z,19.60
2018-08-14T04:40:03.723Z,19.60
2018-08-14T04:42:33.020Z,19.70
2018-08-14T04:45:01.257Z,19.60
2018-08-14T04:47:29.523Z,19.70
2018-08-14T04:49:57.981Z,19.70
2018-08-14T04:52:26.598Z,19.70
2018-08-14T04:54:54.806Z,19.70
2018-08-14T04:57:23.044Z,19.70
2018-08-14T04:59:51.374Z,19.80
2018-08-14T05:02:20.724Z,19.80
2018-08-14T05:04:49.012Z,19.90
2018-08-14T05:07:17.234Z,19.90
2018-08-14T05:09:45.542Z,19.90
2018-08-14T05:12:13.778Z,20.00
2018-08-14T05:14:42.086Z,20.00
2018-08-14T05:17:10.299Z,20.10
2018-08-14T05:19:38.927Z,20.10
2018-08-14T05:22:07.157Z,20.10
2018-08-14T05:24:35.366Z,20.20
2018-08-14T05:27:03.681Z,20.20
2018-08-14T05:29:31.960Z,20.30
2018-08-14T05:32:00.913Z,20.40
2018-08-14T05:34:29.182Z,20.50
2018-08-14T05:36:57.401Z,20.50
2018-08-14T05:39:25.638Z,20.60
2018-08-14T05:41:53.874Z,20.70
2018-08-14T05:44:24.687Z,20.70
2018-08-14T05:46:52.937Z,20.70
2018-08-14T05:49:21.290Z,20.80
2018-08-14T05:51:49.490Z,20.90
2018-08-14T05:54:19.715Z,20.90
2018-08-14T05:56:48.039Z,21.00
2018-08-14T05:59:16.256Z,21.00
2018-08-14T06:01:44.558Z,21.10
2018-08-14T06:04:13.568Z,21.20
2018-08-14T06:06:41.813Z,21.20
2018-08-14T06:09:12.938Z,21.10
2018-08-14T06:11:42.017Z,21.10
2018-08-14T06:14:10.414Z,21.30
2018-08-14T06:16:40.986Z,21.60
2018-08-14T06:19:09.727Z,22.00
2018-08-14T06:21:37.952Z,22.30
2018-08-14T06:24:06.216Z,22.70
2018-08-14T06:26:34.454Z,23.00
2018-08-14T06:29:02.711Z,23.30
2018-08-14T06:31:30.963Z,23.50
2018-08-14T06:33:59.210Z,23.80
2018-08-14T06:36:27.517Z,24.00
2018-08-14T06:38:55.766Z,24.30
2018-08-14T06:41:24.043Z,24.60
2018-08-14T06:43:52.635Z,24.70
2018-08-14T06:46:21.221Z,24.70
2018-08-14T06:48:49.534Z,24.70
2018-08-14T06:51:17.632Z,24.70
2018-08-14T06:53:46.201Z,24.40
2018-08-14T06:56:15.622Z,24.10
2018-08-14T06:58:43.877Z,23.90
2018-08-14T07:01:12.107Z,23.90
2018-08-14T07:03:40.295Z,23.80
2018-08-14T07:06:08.526Z,23.80
2018-08-14T07:08:36.826Z,23.80
2018-08-14T07:11:05.163Z,23.80
2018-08-14T07:13:33.393Z,23.90
2018-08-14T07:16:01.655Z,24.00
2018-08-14T07:18:30.849Z,24.10
2018-08-14T07:20:59.230Z,24.00
2018-08-14T07:23:27.501Z,23.90
2018-08-14T07:25:55.673Z,23.70
2018-08-14T07:28:23.964Z,23.60
2018-08-14T07:30:52.185Z,23.60
2018-08-14T07:33:20.414Z,23.50
2018-08-14T07:35:48.676Z,23.40
2018-08-14T07:38:16.954Z,23.40
2018-08-14T07:40:45.185Z,23.40
2018-08-14T07:43:13.386Z,23.50
2018-08-14T07:45:41.604Z,23.80
2018-08-14T07:48:09.853Z,24.20
2018-08-14T07:50:38.052Z,24.60
2018-08-14T07:53:06.501Z,24.90
2018-08-14T07:55:34.715Z,25.30
2018-08-14T07:58:02.973Z,25.80
2018-08-14T08:00:33.319Z,26.20
2018-08-14T08:03:01.529Z,26.60
2018-08-14T08:05:29.787Z,26.70
2018-08-14T08:07:58.006Z,27.00
2018-08-14T08:10:26.256Z,27.20
2018-08-14T08:12:54.436Z,27.20
2018-08-14T08:15:22.684Z,27.30
2018-08-14T08:17:50.905Z,27.70
2018-08-14T08:20:27.609Z,27.80
2018-08-14T08:22:55.930Z,27.90
2018-08-14T08:25:25.006Z,27.90
2018-08-14T08:27:53.369Z,27.80
2018-08-14T08:30:22.297Z,27.90
2018-08-14T08:32:50.612Z,27.80
2018-08-14T08:35:18.851Z,27.40
2018-08-14T08:37:47.246Z,27.30
2018-08-14T08:40:15.480Z,27.20
2018-08-14T08:42:43.828Z,27.20
2018-08-14T08:45:12.047Z,27.10
2018-08-14T08:47:40.504Z,27.00
2018-08-14T08:50:10.751Z,26.90
2018-08-14T08:52:39.030Z,26.90
2018-08-14T08:55:07.905Z,27.30
2018-08-14T08:57:36.173Z,27.50
2018-08-14T09:00:06.967Z,27.40
2018-08-14T09:02:35.197Z,27.30
2018-08-14T09:05:03.566Z,27.20
2018-08-14T09:07:32.092Z,27.30
2018-08-14T09:10:00.314Z,27.40
2018-08-14T09:12:28.518Z,27.50
2018-08-14T09:14:56.879Z,27.70
2018-08-14T09:17:25.177Z,27.90
2018-08-14T09:19:53.432Z,28.30
2018-08-14T09:22:21.658Z,28.50
2018-08-14T09:24:49.939Z,28.20
2018-08-14T09:27:18.181Z,28.10
2018-08-14T09:29:46.430Z,27.80
2018-08-14T09:32:14.653Z,27.30
2018-08-14T09:34:42.902Z,26.90
2018-08-14T09:37:11.161Z,26.50
2018-08-14T09:39:39.641Z,26.20
2018-08-14T09:42:08.117Z,26.00
2018-08-14T09:44:36.399Z,25.90
2018-08-14T09:47:04.688Z,25.70
2018-08-14T09:49:32.907Z,25.50
2018-08-14T09:52:01.168Z,25.60
2018-08-14T09:54:29.509Z,26.00
2018-08-14T09:56:57.774Z,26.20
2018-08-14T09:59:26.118Z,26.10
2018-08-14T10:01:59.758Z,26.20
2018-08-14T10:04:33.266Z,26.30
2018-08-14T10:07:07.265Z,26.20
2018-08-14T10:09:35.581Z,26.20
2018-08-14T10:12:03.881Z,25.90
2018-08-14T10:14:39.765Z,25.70
2018-08-14T10:17:11.381Z,25.70
2018-08-14T10:19:39.648Z,25.90
2018-08-14T10:22:08.354Z,26.00
2018-08-14T10:24:36.861Z,26.00
2018-08-14T10:27:05.214Z,26.20
2018-08-14T10:29:33.465Z,26.50
2018-08-14T10:32:01.920Z,26.70
2018-08-14T10:34:30.638Z,26.90
2018-08-14T10:36:58.971Z,27.20
2018-08-14T10:39:27.232Z,27.50
2018-08-14T10:41:55.477Z,27.60
2018-08-14T10:44:23.730Z,27.70
2018-08-14T10:46:52.006Z,27.80
2018-08-14T10:49:20.259Z,28.00
2018-08-14T10:51:48.577Z,28.10
2018-08-14T10:54:16.838Z,28.10
2018-08-14T10:56:45.061Z,27.60
2018-08-14T10:59:13.267Z,27.20
2018-08-14T11:01:41.562Z,26.90
2018-08-14T11:04:09.853Z,26.90
2018-08-14T11:06:38.079Z,26.60
2018-08-14T11:09:07.746Z,26.50
2018-08-14T11:11:41.429Z,26.30
2018-08-14T11:14:10.689Z,26.20
2018-08-14T11:16:38.930Z,26.10
2018-08-14T11:19:07.442Z,26.10
2018-08-14T11:21:35.768Z,26.20
2018-08-14T11:24:03.957Z,26.20
2018-08-14T11:26:32.214Z,26.30
2018-08-14T11:29:00.479Z,26.30
2018-08-14T11:31:28.665Z,26.40
2018-08-14T11:33:56.928Z,26.50
2018-08-14T11:36:27.391Z,26.50
2018-08-14T11:38:55.628Z,26.40
2018-08-14T11:41:23.846Z,26.40
2018-08-14T11:43:52.079Z,26.40
2018-08-14T11:46:20.326Z,26.40
2018-08-14T11:48:48.643Z,26.40
2018-08-14T11:51:16.922Z,26.30
2018-08-14T11:53:45.138Z,26.20
2018-08-14T11:56:13.429Z,26.40
2018-08-14T11:58:41.905Z,26.50
2018-08-14T12:01:10.132Z,26.50
2018-08-14T12:03:38.417Z,26.20
2018-08-14T12:06:06.674Z,26.20
2018-08-14T12:08:34.939Z,26.10
2018-08-14T12:11:03.187Z,25.90
2018-08-14T12:13:31.447Z,25.90
2018-08-14T12:15:59.693Z,25.80
2018-08-14T12:18:28.018Z,25.80
2018-08-14T12:20:56.215Z,25.70
2018-08-14T12:23:24.490Z,25.70
2018-08-14T12:25:52.680Z,25.90
2018-08-14T12:28:22.028Z,26.10
2018-08-14T12:30:50.894Z,26.30
2018-08-14T12:33:19.165Z,26.50
2018-08-14T12:35:47.370Z,26.70
2018-08-14T12:38:16.723Z,26.70
2018-08-14T12:40:44.959Z,26.60
2018-08-14T12:43:13.174Z,26.70
2018-08-14T12:45:41.395Z,26.90
2018-08-14T12:48:09.673Z,27.00
2018-08-14T12:50:37.925Z,27.00
2018-08-14T12:53:06.240Z,27.00
2018-08-14T12:55:34.487Z,27.10
2018-08-14T12:58:02.647Z,27.10
2018-08-14T13:00:31.238Z,27.10
2018-08-14T13:02:59.462Z,27.10
2018-08-14T13:05:28.067Z,27.10
2018-08-14T13:07:56.536Z,27.10
2018-08-14T13:10:24.784Z,27.10
2018-08-14T13:12:53.245Z,26.90
2018-08-14T13:15:21.491Z,26.60
2018-08-14T13:17:58.215Z,26.50
2018-08-14T13:20:26.447Z,26.40
2018-08-14T13:22:54.682Z,26.40
2018-08-14T13:25:22.910Z,26.30
2018-08-14T13:27:51.174Z,26.20
2018-08-14T13:30:19.433Z,26.20
2018-08-14T13:32:47.732Z,26.20
2018-08-14T13:35:15.973Z,26.10
2018-08-14T13:37:44.281Z,26.00
2018-08-14T13:40:13.302Z,26.10
2018-08-14T13:42:41.472Z,26.20
2018-08-14T13:45:11.127Z,26.30
2018-08-14T13:47:39.808Z,26.30
2018-08-14T13:50:09.168Z,26.20
2018-08-14T13:52:38.001Z,26.20
2018-08-14T13:55:08.179Z,26.20
2018-08-14T13:57:36.965Z,26.20
2018-08-14T14:00:08.559Z,26.20
2018-08-14T14:02:37.286Z,26.30
2018-08-14T14:05:06.084Z,26.40
2018-08-14T14:07:35.151Z,26.40
2018-08-14T14:10:03.415Z,26.40
2018-08-14T14:12:31.594Z,26.40
2018-08-14T14:14:59.862Z,26.30
2018-08-14T14:17:28.125Z,26.20
2018-08-14T14:19:56.427Z,26.20
2018-08-14T14:22:24.690Z,26.30
2018-08-14T14:24:53.462Z,26.30
2018-08-14T14:27:21.675Z,26.30
2018-08-14T14:29:50.045Z,26.40
2018-08-14T14:32:18.277Z,26.50
2018-08-14T14:34:46.469Z,26.50
2018-08-14T14:37:14.811Z,26.50
2018-08-14T14:39:43.967Z,26.40
2018-08-14T14:42:12.203Z,26.40
2018-08-14T14:44:40.426Z,26.30
2018-08-14T14:47:08.600Z,26.20
2018-08-14T14:49:36.878Z,26.20
2018-08-14T14:52:05.833Z,26.10
2018-08-14T14:54:34.114Z,25.90
2018-08-14T14:57:02.337Z,25.90
2018-08-14T14:59:30.618Z,25.70
2018-08-14T15:01:58.828Z,25.90
2018-08-14T15:04:27.061Z,25.90
2018-08-14T15:06:55.286Z,26.00
2018-08-14T15:09:24.004Z,26.10
2018-08-14T15:11:52.267Z,26.30
2018-08-14T15:14:21.118Z,26.30
2018-08-14T15:16:49.329Z,26.30
2018-08-14T15:19:20.057Z,26.20
2018-08-14T15:21:48.354Z,26.00
2018-08-14T15:24:16.631Z,25.80
2018-08-14T15:26:44.793Z,25.80
2018-08-14T15:29:20.858Z,25.70
2018-08-14T15:31:57.413Z,25.60
2018-08-14T15:34:27.845Z,25.60
2018-08-14T15:37:00.046Z,25.70
2018-08-14T15:39:29.081Z,25.80
2018-08-14T15:42:01.470Z,25.70
2018-08-14T15:44:29.670Z,25.80
2018-08-14T15:46:57.843Z,25.80
2018-08-14T15:49:26.201Z,25.90
2018-08-14T15:51:54.298Z,25.90
2018-08-14T15:54:22.739Z,25.90
2018-08-14T15:56:51.295Z,26.00
2018-08-14T15:59:19.576Z,25.90
2018-08-14T16:01:47.911Z,25.80
2018-08-14T16:04:17.211Z,25.70
2018-08-14T16:06:45.597Z,25.60
2018-08-14T16:09:16.908Z,25.60
2018-08-14T16:11:45.875Z,25.40
2018-08-14T16:14:14.564Z,25.20
2018-08-14T16:16:42.801Z,25.20
2018-08-14T16:19:12.478Z,25.10
2018-08-14T16:21:41.485Z,25.00
2018-08-14T16:24:10.142Z,25.00
2018-08-14T16:26:38.439Z,25.10
2018-08-14T16:29:06.820Z,25.00
2018-08-14T16:31:35.077Z,25.00
2018-08-14T16:34:03.884Z,25.00
2018-08-14T16:36:32.170Z,25.00
2018-08-14T16:39:00.462Z,24.90
2018-08-14T16:41:28.707Z,24.80
2018-08-14T16:43:56.994Z,24.80
2018-08-14T16:46:25.249Z,24.70
2018-08-14T16:48:54.160Z,24.70
2018-08-14T16:51:22.394Z,24.70
2018-08-14T16:53:51.485Z,24.70
2018-08-14T16:56:19.803Z,24.60
2018-08-14T16:58:48.079Z,24.60
2018-08-14T17:01:16.478Z,24.60
2018-08-14T17:03:45.617Z,24.60
2018-08-14T17:06:13.897Z,24.50
2018-08-14T17:08:42.118Z,24.50
2018-08-14T17:11:10.389Z,24.30
2018-08-14T17:13:38.868Z,24.40
2018-08-14T17:16:07.187Z,24.40
2018-08-14T17:18:36.074Z,24.40
2018-08-14T17:21:03.331Z,24.40
2018-08-14T17:23:31.656Z,24.40
2018-08-14T17:25:59.929Z,24.40
2018-08-14T17:28:28.210Z,24.30
2018-08-14T17:30:56.485Z,24.30
2018-08-14T17:33:24.747Z,24.20
2018-08-14T17:35:53.044Z,24.20
2018-08-14T17:38:21.361Z,24.20
2018-08-14T17:40:49.529Z,24.20
2018-08-14T17:43:18.157Z,24.20
2018-08-14T17:45:46.341Z,24.10
2018-08-14T17:48:14.622Z,24.10
2018-08-14T17:50:42.977Z,24.00
2018-08-14T17:53:11.220Z,24.10
2018-08-14T17:55:39.447Z,24.00
2018-08-14T17:58:07.687Z,24.00
2018-08-14T18:00:35.939Z,24.00
2018-08-14T18:03:07.214Z,23.90
2018-08-14T18:05:35.482Z,23.90
2018-08-14T18:08:03.970Z,23.80
2018-08-14T18:10:32.188Z,23.80
2018-08-14T18:13:00.441Z,23.80
2018-08-14T18:15:28.696Z,23.70
2018-08-14T18:17:56.902Z,23.60
2018-08-14T18:20:25.837Z,23.60
2018-08-14T18:22:54.120Z,23.60
2018-08-14T18:25:23.765Z,23.50
2018-08-14T18:27:52.452Z,23.50
2018-08-14T18:30:21.421Z,23.50
2018-08-14T18:32:50.030Z,23.40
2018-08-14T18:35:18.671Z,23.40
2018-08-14T18:37:47.379Z,23.40
2018-08-14T18:40:17.409Z,23.40
2018-08-14T18:42:46.265Z,23.40
2018-08-14T18:45:16.353Z,23.30
2018-08-14T18:47:44.632Z,23.30
2018-08-14T18:50:14.081Z,23.20
2018-08-14T18:52:42.338Z,23.20
2018-08-14T18:55:12.968Z,23.20
2018-08-14T18:57:41.796Z,23.30
2018-08-14T19:00:16.621Z,23.20
2018-08-14T19:02:44.944Z,23.30
2018-08-14T19:05:13.280Z,23.30
2018-08-14T19:07:41.450Z,23.30
2018-08-14T19:10:10.377Z,23.20
2018-08-14T19:12:38.644Z,23.20
2018-08-14T19:15:15.096Z,23.20
2018-08-14T19:17:44.122Z,23.20
2018-08-14T19:22:50.481Z,23.10
2018-08-14T19:25:18.756Z,23.00
2018-08-14T19:27:47.113Z,23.00
2018-08-14T19:30:15.683Z,23.00
2018-08-14T19:32:44.231Z,23.00
2018-08-14T19:35:13.902Z,22.90
2018-08-14T19:37:42.338Z,23.00
2018-08-14T19:40:19.959Z,23.00
2018-08-14T19:42:48.466Z,23.00
2018-08-14T19:45:16.831Z,22.90
2018-08-14T19:47:45.029Z,22.90
2018-08-14T19:50:14.341Z,22.90
2018-08-14T19:52:42.785Z,22.90
2018-08-14T19:55:19.846Z,22.90
2018-08-14T19:57:49.774Z,22.90
2018-08-14T20:00:23.062Z,22.80
2018-08-14T20:02:51.405Z,22.80
2018-08-14T20:05:19.605Z,22.80
2018-08-14T20:07:47.899Z,22.70
2018-08-14T20:10:16.265Z,22.70
2018-08-14T20:12:44.533Z,22.70
2018-08-14T20:15:14.609Z,22.70
2018-08-14T20:17:43.214Z,22.70
2018-08-14T20:20:17.084Z,22.70
2018-08-14T20:22:45.671Z,22.70
2018-08-14T20:25:13.910Z,22.70
2018-08-14T20:27:42.121Z,22.60
2018-08-14T20:30:12.051Z,22.70
2018-08-14T20:32:40.690Z,22.60
2018-08-14T20:35:10.412Z,22.60
2018-08-14T20:37:38.723Z,22.60
2018-08-14T20:40:10.508Z,22.70
2018-08-14T20:42:38.839Z,22.60
2018-08-14T20:45:09.081Z,22.70
2018-08-14T20:47:37.641Z,22.60
2018-08-14T20:50:08.171Z,22.60
2018-08-14T20:52:36.622Z,22.60
2018-08-14T20:55:06.341Z,22.60
2018-08-14T20:57:34.514Z,22.60
2018-08-14T21:00:02.837Z,22.60
2018-08-14T21:02:31.051Z,22.70
2018-08-14T21:04:59.485Z,22.70
2018-08-14T21:07:27.737Z,22.70
2018-08-14T21:09:55.962Z,22.80
2018-08-14T21:12:29.480Z,22.70
2018-08-14T21:14:58.589Z,22.70
2018-08-14T21:17:26.847Z,22.80
2018-08-14T21:19:55.158Z,22.70
2018-08-14T21:22:23.383Z,22.70
2018-08-14T21:24:51.805Z,22.70
2018-08-14T21:27:20.023Z,22.70
2018-08-14T21:29:48.263Z,22.70
2018-08-14T21:32:16.511Z,22.70
2018-08-14T21:34:44.718Z,22.80
2018-08-14T21:37:12.911Z,22.80
2018-08-14T21:39:41.110Z,22.80
2018-08-14T21:42:09.341Z,22.70
2018-08-14T21:44:37.621Z,22.70
2018-08-14T21:47:05.859Z,22.70
2018-08-14T21:49:34.061Z,22.60
2018-08-14T21:52:02.424Z,22.60
2018-08-14T21:54:30.664Z,22.60
2018-08-14T21:56:58.961Z,22.60
2018-08-14T21:59:27.254Z,22.60
2018-08-14T22:01:55.551Z,22.60
2018-08-14T22:04:23.784Z,22.60
2018-08-14T22:06:52.007Z,22.60
2018-08-14T22:09:20.294Z,22.60
2018-08-14T22:11:48.511Z,22.60
2018-08-14T22:14:16.723Z,22.60
2018-08-14T22:16:45.432Z,22.60
2018-08-14T22:19:13.684Z,22.60
2018-08-14T22:21:41.964Z,22.60
2018-08-14T22:24:10.367Z,22.60
2018-08-14T22:26:38.630Z,22.50
2018-08-14T22:29:06.890Z,22.50
2018-08-14T22:31:35.108Z,22.50
2018-08-14T22:34:03.370Z,22.50
2018-08-14T22:36:31.611Z,22.40
2018-08-14T22:38:59.846Z,22.40
2018-08-14T22:41:28.062Z,22.40
2018-08-14T22:43:56.717Z,22.50
2018-08-14T22:46:24.943Z,22.40
2018-08-14T22:48:53.186Z,22.30
2018-08-14T22:51:21.447Z,22.30
2018-08-14T22:53:49.768Z,22.30
2018-08-14T22:56:18.014Z,22.30
2018-08-14T22:58:46.227Z,22.30
2018-08-14T23:01:14.480Z,22.30
2018-08-14T23:03:42.679Z,22.30
2018-08-14T23:06:10.953Z,22.30
2018-08-14T23:08:39.181Z,22.30
2018-08-14T23:11:07.506Z,22.20
2018-08-14T23:13:36.016Z,22.10
2018-08-14T23:16:04.640Z,22.10
2018-08-14T23:18:34.729Z,22.10
2018-08-14T23:21:03.064Z,22.10
2018-08-14T23:23:31.314Z,22.10
2018-08-14T23:25:59.509Z,22.10
2018-08-14T23:28:27.715Z,22.10
2018-08-14T23:30:55.945Z,22.10
2018-08-14T23:33:25.107Z,22.10
2018-08-14T23:35:53.298Z,22.10
2018-08-14T23:38:21.606Z,22.10
2018-08-14T23:40:49.873Z,22.10
2018-08-14T23:43:18.088Z,22.10
2018-08-14T23:45:46.317Z,22.10
2018-08-14T23:48:14.579Z,22.00
2018-08-14T23:50:42.832Z,21.90
2018-08-14T23:53:11.064Z,21.80
2018-08-14T23:55:39.316Z,21.80
2018-08-14T23:58:07.697Z,21.70
